createdAt,value
2022-10-19T00:09:19.626Z,11.40
2022-10-19T00:14:42.708Z,11.39
2022-10-19T00:20:06.715Z,11.39
2022-10-19T00:25:31.135Z,11.34
2022-10-19T00:30:54.263Z,11.26
2022-10-19T00:36:18.916Z,11.29
2022-10-19T00:41:44.268Z,11.27
2022-10-19T00:47:08.610Z,11.21
2022-10-19T00:52:32.165Z,11.23
2022-10-19T00:57:57.238Z,11.21
2022-10-19T01:03:20.958Z,11.23
2022-10-19T01:08:44.237Z,11.17
2022-10-19T01:14:27.462Z,11.08
2022-10-19T01:20:09.058Z,10.99
2022-10-19T01:25:40.751Z,10.89
2022-10-19T01:31:10.819Z,10.83
2022-10-19T01:36:40.571Z,10.74
2022-10-19T01:42:10.415Z,10.69
2022-10-19T01:47:37.862Z,10.63
2022-10-19T01:53:01.026Z,10.56
2022-10-19T01:58:27.777Z,10.46
2022-10-19T02:03:53.015Z,10.39
2022-10-19T02:09:18.236Z,10.35
2022-10-19T02:14:43.612Z,10.29
2022-10-19T02:20:09.164Z,10.23
2022-10-19T02:25:32.348Z,10.14
2022-10-19T02:30:55.467Z,10.13
2022-10-19T02:36:20.621Z,10.08
2022-10-19T02:41:46.388Z,9.98
2022-10-19T02:47:14.676Z,9.95
2022-10-19T02:52:39.419Z,9.93
2022-10-19T02:58:02.566Z,9.95
2022-10-19T03:03:25.642Z,9.91
2022-10-19T03:08:50.168Z,9.87
2022-10-19T03:14:13.261Z,9.84
2022-10-19T03:19:36.939Z,9.76
2022-10-19T03:25:01.375Z,9.68
2022-10-19T03:30:24.503Z,9.60
2022-10-19T03:35:47.582Z,9.56
2022-10-19T03:41:12.381Z,9.52
2022-10-19T03:46:36.307Z,9.42
2022-10-19T03:51:59.345Z,9.47
2022-10-19T03:57:23.854Z,9.47
2022-10-19T04:02:46.944Z,9.44
2022-10-19T04:08:10.209Z,9.42
2022-10-19T04:13:35.896Z,9.39
2022-10-19T04:19:01.669Z,9.42
2022-10-19T04:24:30.516Z,9.43
2022-10-19T04:29:55.277Z,9.44
2022-10-19T04:35:18.565Z,9.50
2022-10-19T04:40:42.396Z,9.50
2022-10-19T04:46:08.336Z,9.53
2022-10-19T04:51:31.786Z,9.48
2022-10-19T04:56:54.900Z,9.47
2022-10-19T05:02:19.384Z,9.49
2022-10-19T05:07:42.437Z,9.46
2022-10-19T05:13:06.111Z,9.46
2022-10-19T05:18:30.684Z,9.44
2022-10-19T05:23:55.721Z,9.43
2022-10-19T05:29:18.789Z,9.40
2022-10-19T05:34:43.292Z,9.39
2022-10-19T05:40:07.747Z,9.48
2022-10-19T05:45:30.837Z,9.54
2022-10-19T05:50:57.027Z,9.63
2022-10-19T05:56:21.855Z,9.76
2022-10-19T06:01:45.271Z,9.87
2022-10-19T06:07:09.856Z,9.97
2022-10-19T06:12:33.154Z,10.01
2022-10-19T06:17:56.244Z,10.05
2022-10-19T06:23:20.714Z,10.12
2022-10-19T06:28:45.058Z,10.17
2022-10-19T06:39:56.360Z,10.22
2022-10-19T06:45:19.998Z,10.36
2022-10-19T06:50:43.063Z,10.50
2022-10-19T06:56:08.540Z,10.58
2022-10-19T07:01:31.669Z,10.62
2022-10-19T07:06:54.746Z,10.64
2022-10-19T07:12:19.201Z,10.73
2022-10-19T07:17:42.333Z,10.88
2022-10-19T07:23:09.125Z,11.11
2022-10-19T07:28:33.732Z,11.33
2022-10-19T07:33:58.168Z,11.48
2022-10-19T07:39:21.496Z,11.59
2022-10-19T07:44:46.006Z,11.70
2022-10-19T07:50:09.859Z,11.69
2022-10-19T07:55:35.060Z,11.88
2022-10-19T08:01:06.135Z,12.06
2022-10-19T08:06:31.757Z,12.19
2022-10-19T08:11:54.941Z,12.15
2022-10-19T08:17:19.487Z,12.22
2022-10-19T08:22:45.131Z,12.17
2022-10-19T08:28:08.316Z,12.28
2022-10-19T08:33:32.733Z,12.31
2022-10-19T08:38:55.862Z,12.44
2022-10-19T08:44:28.550Z,12.59
2022-10-19T08:49:53.392Z,12.71
2022-10-19T08:55:29.360Z,12.60
2022-10-19T09:00:56.734Z,12.52
2022-10-19T09:06:24.660Z,12.57
2022-10-19T09:11:50.844Z,12.60
2022-10-19T09:17:16.481Z,12.66
2022-10-19T09:22:43.388Z,12.76
2022-10-19T09:28:15.932Z,12.85
2022-10-19T09:33:40.722Z,12.87
2022-10-19T09:39:05.834Z,13.15
2022-10-19T09:44:29.028Z,13.11
2022-10-19T09:49:52.127Z,13.20
2022-10-19T09:55:28.399Z,13.19
2022-10-19T10:00:54.820Z,13.29
2022-10-19T10:06:19.091Z,13.34
2022-10-19T10:11:44.884Z,13.50
2022-10-19T10:17:09.236Z,13.49
2022-10-19T10:22:34.314Z,13.44
2022-10-19T10:28:02.075Z,13.51
2022-10-19T10:33:43.773Z,13.45
2022-10-19T10:39:08.735Z,13.31
2022-10-19T10:44:36.537Z,13.52
2022-10-19T10:50:02.722Z,13.33
2022-10-19T10:55:26.645Z,13.39
2022-10-19T11:00:52.813Z,13.55
2022-10-19T11:06:16.410Z,13.69
2022-10-19T11:11:43.207Z,13.67
2022-10-19T11:17:12.219Z,13.83
2022-10-19T11:22:42.264Z,13.81
2022-10-19T11:28:18.865Z,13.85
2022-10-19T11:33:56.693Z,14.08
2022-10-19T11:39:38.152Z,13.93
2022-10-19T11:45:07.469Z,14.20
2022-10-19T11:50:36.588Z,14.34
2022-10-19T11:56:05.041Z,14.39
2022-10-19T12:01:37.667Z,14.40
2022-10-19T12:07:11.011Z,14.50
2022-10-19T12:12:36.130Z,14.33
2022-10-19T12:18:04.067Z,14.23
2022-10-19T12:23:33.068Z,14.19
2022-10-19T12:28:58.294Z,14.28
2022-10-19T12:34:33.315Z,14.15
2022-10-19T12:40:01.732Z,14.27
2022-10-19T12:45:30.311Z,14.26
2022-10-19T12:51:05.122Z,14.43
2022-10-19T12:56:32.340Z,14.49
2022-10-19T13:01:57.017Z,14.35
2022-10-19T13:07:20.158Z,14.04
2022-10-19T13:12:46.879Z,14.09
2022-10-19T13:18:15.760Z,14.07
2022-10-19T13:23:42.821Z,14.04
2022-10-19T13:29:25.667Z,14.11
2022-10-19T13:34:50.779Z,14.31
2022-10-19T13:40:24.512Z,14.49
2022-10-19T13:45:56.109Z,14.48
2022-10-19T13:51:25.876Z,14.49
2022-10-19T13:57:13.159Z,14.66
2022-10-19T14:02:57.589Z,14.73
2022-10-19T14:08:33.880Z,14.92
2022-10-19T14:14:18.814Z,14.99
2022-10-19T14:19:45.448Z,14.87
2022-10-19T14:25:20.340Z,14.72
2022-10-19T14:30:43.496Z,14.49
2022-10-19T14:36:08.821Z,14.34
2022-10-19T14:47:04.252Z,14.31
2022-10-19T14:52:33.063Z,14.24
2022-10-19T14:57:56.223Z,14.25
2022-10-19T15:03:23.657Z,14.04
2022-10-19T15:08:50.800Z,14.02
2022-10-19T15:14:15.801Z,14.08
2022-10-19T15:19:42.085Z,14.03
2022-10-19T15:25:26.084Z,14.00
2022-10-19T15:31:02.114Z,13.79
2022-10-19T15:36:26.213Z,13.77
2022-10-19T15:41:53.047Z,13.67
2022-10-19T15:47:22.219Z,13.47
2022-10-19T15:52:45.553Z,13.37
2022-10-19T15:58:11.226Z,13.20
2022-10-19T16:03:34.333Z,13.22
2022-10-19T16:08:58.658Z,13.06
2022-10-19T16:14:23.282Z,13.02
2022-10-19T16:19:46.913Z,12.97
2022-10-19T16:25:12.135Z,12.88
2022-10-19T16:30:36.610Z,12.87
2022-10-19T16:35:59.787Z,12.81
2022-10-19T16:41:22.923Z,12.84
2022-10-19T16:46:47.394Z,12.78
2022-10-19T16:52:14.330Z,12.81
2022-10-19T16:57:37.974Z,12.75
2022-10-19T17:03:02.410Z,12.73
2022-10-19T17:08:37.176Z,12.65
2022-10-19T17:14:09.411Z,12.68
2022-10-19T17:19:33.956Z,12.61
2022-10-19T17:24:57.054Z,12.55
2022-10-19T17:30:20.410Z,12.55
2022-10-19T17:35:44.928Z,12.60
2022-10-19T17:41:10.048Z,12.49
2022-10-19T17:46:34.789Z,12.37
2022-10-19T17:51:59.404Z,12.40
2022-10-19T17:57:22.464Z,12.30
2022-10-19T18:02:46.685Z,12.30
2022-10-19T18:08:11.616Z,12.18
2022-10-19T18:19:05.197Z,12.13
2022-10-19T18:24:29.768Z,12.12
2022-10-19T18:29:52.967Z,12.07
2022-10-19T18:35:16.262Z,11.98
2022-10-19T18:40:40.844Z,11.90
2022-10-19T18:46:07.015Z,11.81
2022-10-19T18:51:31.810Z,11.85
2022-10-19T18:56:57.672Z,11.78
2022-10-19T19:02:22.346Z,11.79
2022-10-19T19:07:51.385Z,11.68
2022-10-19T19:13:15.784Z,11.66
2022-10-19T19:18:39.068Z,11.50
2022-10-19T19:24:03.961Z,11.47
2022-10-19T19:29:30.359Z,11.42
2022-10-19T19:34:54.922Z,11.37
2022-10-19T19:40:18.281Z,11.33
2022-10-19T19:45:43.339Z,11.26
2022-10-19T19:51:08.596Z,11.23
2022-10-19T19:56:31.667Z,11.12
2022-10-19T20:01:56.133Z,11.14
2022-10-19T20:07:19.252Z,11.03
2022-10-19T20:12:42.308Z,11.00
2022-10-19T20:18:07.046Z,11.00
2022-10-19T20:23:30.459Z,11.01
2022-10-19T20:28:54.068Z,10.93
2022-10-19T20:34:21.863Z,10.91
2022-10-19T20:39:47.202Z,10.95
2022-10-19T20:45:12.562Z,10.78
2022-10-19T20:50:37.024Z,10.72
2022-10-19T20:56:05.236Z,10.72
2022-10-19T21:01:29.336Z,10.73
2022-10-19T21:06:53.964Z,10.61
2022-10-19T21:12:17.020Z,10.55
2022-10-19T21:17:40.036Z,10.50
2022-10-19T21:23:04.473Z,10.53
2022-10-19T21:28:29.636Z,10.48
2022-10-19T21:33:53.079Z,10.42
2022-10-19T21:39:17.937Z,10.48
2022-10-19T21:44:40.992Z,10.35
2022-10-19T21:50:04.436Z,10.27
2022-10-19T21:55:31.170Z,10.21
2022-10-19T22:00:54.290Z,10.18
2022-10-19T22:06:17.649Z,10.22
2022-10-19T22:11:42.112Z,10.13
2022-10-19T22:17:05.230Z,10.22
2022-10-19T22:22:28.389Z,10.14
2022-10-19T22:27:52.782Z,10.07
2022-10-19T22:33:15.851Z,10.03
2022-10-19T22:38:39.032Z,10.02
2022-10-19T22:44:03.717Z,10.04
2022-10-19T22:49:26.982Z,10.05
2022-10-19T22:54:51.111Z,10.06
2022-10-19T23:00:16.032Z,10.14
2022-10-19T23:05:39.216Z,10.01
2022-10-19T23:11:02.404Z,10.08
2022-10-19T23:21:50.993Z,9.91
2022-10-19T23:27:14.323Z,9.87
2022-10-19T23:32:38.871Z,9.81
2022-10-19T23:38:02.019Z,9.83
2022-10-19T23:43:26.386Z,9.81
2022-10-19T23:48:50.866Z,9.86
2022-10-19T23:54:13.951Z,9.88
2022-10-19T23:59:39.827Z,9.79
